AAL1527 MBPV-KMIA
Flight info
| Callsign | AAL1527 |
|---|---|
| Flight time | N/A |
| Altitude | 36000 |
| Route | MICAS4 MICAS DCT FODED Y308 MADIZ VIICE2 |
| Aircraft | B738/M-SDE2E3FGHIRWXY/LB1 |
Departure
| Time | 2026-04-26 18:02 |
|---|---|
| Airport | Providenciales International Airport (MBPV) |
Arrival
| Time | N/A |
|---|---|
| Airport | Miami International Airport (KMIA) |
| Time | Latitude | Longitude | Altitude | Speed | Heading |
|---|---|---|---|---|---|
| 2026-04-26 17:43 | 21.77573 | -72.27298 | 41 ft | 0 kts | 33° |
| 2026-04-26 17:54 | 21.77566 | -72.27303 | 40 ft | 3 kts | 29° |
| 2026-04-26 17:55 | 21.77547 | -72.27312 | 41 ft | 3 kts | 3° |
| 2026-04-26 17:55 | 21.77529 | -72.27309 | 38 ft | 3 kts | 319° |
| 2026-04-26 17:55 | 21.77519 | -72.27293 | 39 ft | 3 kts | 275° |
| 2026-04-26 17:55 | 21.77519 | -72.27290 | 39 ft | 1 kts | 273° |
| 2026-04-26 17:59 | 21.77519 | -72.27293 | 39 ft | 4 kts | 273° |
| 2026-04-26 17:59 | 21.77524 | -72.27394 | 40 ft | 21 kts | 271° |
| 2026-04-26 17:59 | 21.77480 | -72.27460 | 39 ft | 12 kts | 192° |
| 2026-04-26 18:00 | 21.77411 | -72.27510 | 37 ft | 14 kts | 252° |
| 2026-04-26 18:00 | 21.77411 | -72.27625 | 37 ft | 20 kts | 274° |
| 2026-04-26 18:00 | 21.77419 | -72.27808 | 37 ft | 29 kts | 272° |
| 2026-04-26 18:00 | 21.77430 | -72.28045 | 36 ft | 33 kts | 272° |
| 2026-04-26 18:01 | 21.77457 | -72.28153 | 36 ft | 9 kts | 315° |
| 2026-04-26 18:01 | 21.77453 | -72.28211 | 36 ft | 9 kts | 215° |
| 2026-04-26 18:01 | 21.77446 | -72.28213 | 36 ft | 0 kts | 190° |
| 2026-04-26 18:01 | 21.77431 | -72.28191 | 36 ft | 7 kts | 95° |
| 2026-04-26 18:02 | 21.77426 | -72.27967 | 36 ft | 69 kts | 93° |
| 2026-04-26 18:02 | 21.77416 | -72.27766 | 37 ft | 96 kts | 93° |
| 2026-04-26 18:02 | 21.77335 | -72.25944 | 520 ft | 172 kts | 94° |
| 2026-04-26 18:02 | 21.77273 | -72.24638 | 1373 ft | 175 kts | 95° |
| 2026-04-26 18:03 | 21.77191 | -72.23224 | 1957 ft | 206 kts | 95° |
| 2026-04-26 18:03 | 21.77090 | -72.21630 | 2564 ft | 221 kts | 96° |
| 2026-04-26 18:03 | 21.76992 | -72.19858 | 2855 ft | 250 kts | 92° |
| 2026-04-26 18:03 | 21.77407 | -72.17973 | 3238 ft | 276 kts | 60° |
| 2026-04-26 18:04 | 21.78840 | -72.16550 | 3871 ft | 291 kts | 26° |
| 2026-04-26 18:04 | 21.80759 | -72.16062 | 4979 ft | 285 kts | 358° |
| 2026-04-26 18:04 | 21.82741 | -72.16285 | 5473 ft | 288 kts | 349° |
| 2026-04-26 18:05 | 21.86624 | -72.16985 | 5811 ft | 276 kts | 350° |
| 2026-04-26 18:05 | 21.88481 | -72.17267 | 5926 ft | 274 kts | 351° |
| 2026-04-26 18:05 | 21.90399 | -72.17543 | 5973 ft | 282 kts | 351° |
| 2026-04-26 18:05 | 21.92368 | -72.17820 | 5964 ft | 285 kts | 351° |
| 2026-04-26 18:06 | 21.94331 | -72.18093 | 5956 ft | 283 kts | 351° |
| 2026-04-26 18:06 | 21.96292 | -72.18366 | 5973 ft | 282 kts | 350° |
| 2026-04-26 18:06 | 21.98235 | -72.18683 | 5954 ft | 281 kts | 342° |
| 2026-04-26 18:06 | 21.99910 | -72.19691 | 5970 ft | 275 kts | 314° |
| 2026-04-26 18:07 | 22.01049 | -72.21300 | 5975 ft | 272 kts | 298° |
| 2026-04-26 18:07 | 22.01991 | -72.23075 | 5966 ft | 273 kts | 297° |
| 2026-04-26 18:07 | 22.02915 | -72.24866 | 5962 ft | 273 kts | 297° |
| 2026-04-26 18:07 | 22.03528 | -72.26055 | 5961 ft | 274 kts | 297° |
| 2026-04-26 18:08 | 22.04765 | -72.28439 | 5965 ft | 275 kts | 297° |